RPC0424 RPUW-RPLL
Flight info
| Callsign | RPC0424 |
|---|---|
| Flight time | 0h 50m |
| Altitude | 7000 |
| Route | CONDE CONDE1A |
| Aircraft | C172/L-SFG/C |
Departure
| Time | 2026-05-04 02:49 |
|---|---|
| Airport | Marinduque Airport (RPUW) |
Arrival
| Time | 2026-05-04 03:40 |
|---|---|
| Airport | Ninoy Aquino International Airport (RPLL) |
| Time | Latitude | Longitude | Altitude | Speed | Heading |
|---|---|---|---|---|---|
| 2026-05-04 02:43 | 13.35856 | 121.82756 | 38 ft | 0 kts | 89° |
| 2026-05-04 02:46 | 13.35854 | 121.82764 | 38 ft | 2 kts | 123° |
| 2026-05-04 02:46 | 13.35818 | 121.82734 | 37 ft | 14 kts | 245° |
| 2026-05-04 02:46 | 13.35775 | 121.82666 | 36 ft | 12 kts | 161° |
| 2026-05-04 02:46 | 13.35680 | 121.82700 | 35 ft | 16 kts | 163° |
| 2026-05-04 02:47 | 13.35571 | 121.82743 | 34 ft | 10 kts | 144° |
| 2026-05-04 02:47 | 13.35547 | 121.82744 | 33 ft | 0 kts | 282° |
| 2026-05-04 02:47 | 13.35549 | 121.82740 | 33 ft | 3 kts | 306° |
| 2026-05-04 02:47 | 13.35599 | 121.82729 | 34 ft | 12 kts | 341° |
| 2026-05-04 02:48 | 13.35836 | 121.82648 | 37 ft | 60 kts | 341° |
| 2026-05-04 02:48 | 13.36340 | 121.82471 | 56 ft | 88 kts | 340° |
| 2026-05-04 02:48 | 13.36918 | 121.82251 | 216 ft | 89 kts | 338° |
| 2026-05-04 02:48 | 13.37509 | 121.81979 | 378 ft | 92 kts | 336° |
| 2026-05-04 02:49 | 13.38120 | 121.81724 | 517 ft | 98 kts | 340° |
| 2026-05-04 02:49 | 13.38730 | 121.81364 | 627 ft | 103 kts | 319° |
| 2026-05-04 02:49 | 13.39160 | 121.80793 | 793 ft | 101 kts | 295° |
| 2026-05-04 02:49 | 13.39573 | 121.80240 | 946 ft | 100 kts | 326° |
| 2026-05-04 02:50 | 13.40083 | 121.79777 | 1063 ft | 105 kts | 303° |
| 2026-05-04 02:50 | 13.40152 | 121.79056 | 1151 ft | 107 kts | 243° |
| 2026-05-04 02:50 | 13.39667 | 121.78512 | 1343 ft | 99 kts | 230° |
| 2026-05-04 02:50 | 13.39534 | 121.77840 | 1461 ft | 102 kts | 288° |
| 2026-05-04 02:51 | 13.39971 | 121.77270 | 1577 ft | 105 kts | 324° |
| 2026-05-04 02:51 | 13.40566 | 121.76870 | 1753 ft | 101 kts | 321° |
| 2026-05-04 02:51 | 13.41087 | 121.76361 | 1835 ft | 108 kts | 320° |
| 2026-05-04 02:51 | 13.41687 | 121.75877 | 1981 ft | 109 kts | 319° |
| 2026-05-04 02:52 | 13.42223 | 121.75345 | 2186 ft | 103 kts | 313° |
| 2026-05-04 02:52 | 13.42649 | 121.74769 | 2377 ft | 101 kts | 303° |
| 2026-05-04 02:52 | 13.43030 | 121.74157 | 2569 ft | 99 kts | 301° |
| 2026-05-04 02:52 | 13.43340 | 121.73540 | 2792 ft | 94 kts | 297° |
| 2026-05-04 02:53 | 13.43692 | 121.72968 | 2952 ft | 98 kts | 306° |
| 2026-05-04 02:53 | 13.44115 | 121.72379 | 3015 ft | 108 kts | 304° |
| 2026-05-04 02:53 | 13.44527 | 121.71726 | 3148 ft | 106 kts | 302° |
| 2026-05-04 02:53 | 13.44897 | 121.71097 | 3360 ft | 101 kts | 300° |
| 2026-05-04 02:54 | 13.45234 | 121.70476 | 3543 ft | 98 kts | 298° |
| 2026-05-04 02:54 | 13.45543 | 121.69855 | 3724 ft | 97 kts | 296° |
| 2026-05-04 02:54 | 13.45828 | 121.69226 | 3897 ft | 97 kts | 294° |
| 2026-05-04 02:54 | 13.46087 | 121.68592 | 4071 ft | 96 kts | 292° |
| 2026-05-04 02:55 | 13.46534 | 121.67303 | 4405 ft | 95 kts | 288° |
| 2026-05-04 02:55 | 13.46722 | 121.66647 | 4571 ft | 95 kts | 285° |
| 2026-05-04 02:55 | 13.46886 | 121.65988 | 4734 ft | 95 kts | 283° |
| 2026-05-04 02:56 | 13.47025 | 121.65325 | 4893 ft | 95 kts | 281° |
| 2026-05-04 02:56 | 13.47138 | 121.64666 | 5047 ft | 95 kts | 279° |
| 2026-05-04 02:56 | 13.47229 | 121.63995 | 5209 ft | 95 kts | 277° |
| 2026-05-04 02:56 | 13.47296 | 121.63323 | 5364 ft | 95 kts | 275° |
| 2026-05-04 02:57 | 13.47549 | 121.62710 | 5461 ft | 99 kts | 312° |
| 2026-05-04 02:57 | 13.47993 | 121.62186 | 5635 ft | 96 kts | 309° |
| 2026-05-04 02:57 | 13.48414 | 121.61660 | 5788 ft | 95 kts | 317° |
| 2026-05-04 02:57 | 13.48991 | 121.61256 | 5824 ft | 106 kts | 326° |
| 2026-05-04 02:58 | 13.49684 | 121.60975 | 5865 ft | 112 kts | 357° |
| 2026-05-04 02:58 | 13.50473 | 121.61053 | 5919 ft | 115 kts | 7° |
| 2026-05-04 02:58 | 13.51279 | 121.61164 | 5942 ft | 118 kts | 8° |
| 2026-05-04 02:58 | 13.52076 | 121.61394 | 5973 ft | 120 kts | 17° |
| 2026-05-04 02:59 | 13.52875 | 121.61654 | 6005 ft | 121 kts | 17° |
| 2026-05-04 02:59 | 13.53667 | 121.61912 | 6036 ft | 121 kts | 17° |
| 2026-05-04 02:59 | 13.54471 | 121.62174 | 6066 ft | 121 kts | 17° |
| 2026-05-04 02:59 | 13.55277 | 121.62435 | 6092 ft | 121 kts | 17° |
| 2026-05-04 03:00 | 13.56088 | 121.62680 | 6123 ft | 121 kts | 9° |
| 2026-05-04 03:00 | 13.56928 | 121.62734 | 6149 ft | 121 kts | 2° |
| 2026-05-04 03:00 | 13.57770 | 121.62773 | 6178 ft | 121 kts | 2° |
| 2026-05-04 03:00 | 13.58609 | 121.62813 | 6205 ft | 121 kts | 2° |
| 2026-05-04 03:01 | 13.59442 | 121.62852 | 6236 ft | 121 kts | 2° |
| 2026-05-04 03:01 | 13.60283 | 121.62891 | 6261 ft | 121 kts | 2° |
| 2026-05-04 03:01 | 13.61121 | 121.62854 | 6284 ft | 120 kts | 349° |
| 2026-05-04 03:01 | 13.61944 | 121.62696 | 6312 ft | 120 kts | 349° |
| 2026-05-04 03:02 | 13.62769 | 121.62540 | 6340 ft | 120 kts | 349° |
| 2026-05-04 03:02 | 13.63593 | 121.62385 | 6368 ft | 120 kts | 349° |
| 2026-05-04 03:02 | 13.64419 | 121.62229 | 6395 ft | 120 kts | 349° |
| 2026-05-04 03:02 | 13.65244 | 121.62073 | 6422 ft | 120 kts | 349° |
| 2026-05-04 03:03 | 13.66059 | 121.61919 | 6445 ft | 120 kts | 349° |
| 2026-05-04 03:03 | 13.66885 | 121.61763 | 6468 ft | 120 kts | 349° |
| 2026-05-04 03:03 | 13.67709 | 121.61607 | 6504 ft | 120 kts | 349° |
| 2026-05-04 03:03 | 13.68533 | 121.61452 | 6530 ft | 120 kts | 349° |
| 2026-05-04 03:04 | 13.69356 | 121.61296 | 6557 ft | 120 kts | 349° |
| 2026-05-04 03:04 | 13.70178 | 121.61164 | 6562 ft | 120 kts | 354° |
| 2026-05-04 03:04 | 13.71001 | 121.61024 | 6561 ft | 120 kts | 354° |
| 2026-05-04 03:04 | 13.71822 | 121.60882 | 6560 ft | 119 kts | 354° |
| 2026-05-04 03:05 | 13.72641 | 121.60740 | 6560 ft | 119 kts | 354° |
| 2026-05-04 03:05 | 13.73397 | 121.60395 | 6516 ft | 121 kts | 328° |
| 2026-05-04 03:05 | 13.74074 | 121.59893 | 6524 ft | 119 kts | 328° |
| 2026-05-04 03:05 | 13.74750 | 121.59393 | 6525 ft | 119 kts | 328° |
| 2026-05-04 03:06 | 13.75419 | 121.58895 | 6523 ft | 119 kts | 327° |
| 2026-05-04 03:06 | 13.76072 | 121.58394 | 6522 ft | 119 kts | 327° |
| 2026-05-04 03:06 | 13.76734 | 121.57886 | 6521 ft | 119 kts | 327° |
| 2026-05-04 03:06 | 13.77383 | 121.57361 | 6511 ft | 119 kts | 322° |
| 2026-05-04 03:07 | 13.77992 | 121.56784 | 6510 ft | 119 kts | 321° |
| 2026-05-04 03:07 | 13.78598 | 121.56208 | 6510 ft | 119 kts | 321° |
| 2026-05-04 03:07 | 13.79203 | 121.55631 | 6510 ft | 118 kts | 321° |
| 2026-05-04 03:07 | 13.79777 | 121.55023 | 6513 ft | 118 kts | 324° |
| 2026-05-04 03:08 | 13.80440 | 121.54526 | 6515 ft | 118 kts | 328° |
| 2026-05-04 03:08 | 13.81105 | 121.54029 | 6514 ft | 118 kts | 328° |
| 2026-05-04 03:08 | 13.81772 | 121.53533 | 6514 ft | 118 kts | 328° |
| 2026-05-04 03:08 | 13.82442 | 121.53036 | 6514 ft | 119 kts | 328° |
| 2026-05-04 03:09 | 13.83113 | 121.52540 | 6504 ft | 119 kts | 328° |
| 2026-05-04 03:09 | 13.83790 | 121.52041 | 6488 ft | 120 kts | 328° |
| 2026-05-04 03:09 | 13.84469 | 121.51539 | 6473 ft | 120 kts | 328° |
| 2026-05-04 03:09 | 13.85124 | 121.51018 | 6452 ft | 121 kts | 324° |
| 2026-05-04 03:10 | 13.85795 | 121.50502 | 6460 ft | 120 kts | 331° |
| 2026-05-04 03:10 | 13.86492 | 121.50025 | 6450 ft | 120 kts | 329° |
| 2026-05-04 03:10 | 13.87176 | 121.49528 | 6444 ft | 120 kts | 328° |
| 2026-05-04 03:10 | 13.87859 | 121.49029 | 6469 ft | 120 kts | 328° |
| 2026-05-04 03:11 | 13.88541 | 121.48527 | 6445 ft | 121 kts | 328° |
| 2026-05-04 03:11 | 13.89224 | 121.48022 | 6474 ft | 121 kts | 328° |
| 2026-05-04 03:11 | 13.89906 | 121.47518 | 6481 ft | 120 kts | 328° |
| 2026-05-04 03:11 | 13.90587 | 121.47014 | 6474 ft | 121 kts | 328° |
| 2026-05-04 03:12 | 13.91284 | 121.46541 | 6469 ft | 120 kts | 345° |
| 2026-05-04 03:12 | 13.91999 | 121.46815 | 6545 ft | 119 kts | 65° |
| 2026-05-04 03:12 | 13.92043 | 121.47644 | 6581 ft | 119 kts | 100° |
| 2026-05-04 03:12 | 13.91996 | 121.48504 | 6528 ft | 123 kts | 88° |
| 2026-05-04 03:13 | 13.92392 | 121.49281 | 6428 ft | 127 kts | 46° |
| 2026-05-04 03:13 | 13.93200 | 121.49609 | 6370 ft | 127 kts | 6° |
| 2026-05-04 03:13 | 13.94024 | 121.49330 | 6322 ft | 127 kts | 326° |
| 2026-05-04 03:13 | 13.94576 | 121.48638 | 6335 ft | 123 kts | 317° |
| 2026-05-04 03:14 | 13.95204 | 121.48083 | 6362 ft | 120 kts | 316° |
| 2026-05-04 03:14 | 13.95814 | 121.47477 | 6363 ft | 121 kts | 317° |
| 2026-05-04 03:14 | 13.96440 | 121.46914 | 6395 ft | 121 kts | 320° |
| 2026-05-04 03:14 | 13.97090 | 121.46357 | 6435 ft | 121 kts | 320° |
| 2026-05-04 03:15 | 13.97745 | 121.45807 | 6445 ft | 121 kts | 321° |
| 2026-05-04 03:15 | 13.98402 | 121.45259 | 6457 ft | 121 kts | 321° |
| 2026-05-04 03:15 | 13.99058 | 121.44711 | 6477 ft | 121 kts | 321° |
| 2026-05-04 03:15 | 13.99714 | 121.44164 | 6524 ft | 121 kts | 321° |
| 2026-05-04 03:16 | 14.00372 | 121.43618 | 6543 ft | 121 kts | 321° |
| 2026-05-04 03:16 | 14.01026 | 121.43073 | 6568 ft | 121 kts | 321° |
| 2026-05-04 03:16 | 14.01674 | 121.42534 | 6573 ft | 121 kts | 321° |
| 2026-05-04 03:16 | 14.02330 | 121.41989 | 6606 ft | 121 kts | 321° |
| 2026-05-04 03:17 | 14.02984 | 121.41444 | 6618 ft | 121 kts | 321° |
| 2026-05-04 03:17 | 14.03638 | 121.40899 | 6621 ft | 121 kts | 321° |
| 2026-05-04 03:17 | 14.04291 | 121.40356 | 6624 ft | 121 kts | 321° |
| 2026-05-04 03:17 | 14.04943 | 121.39813 | 6642 ft | 121 kts | 321° |
| 2026-05-04 03:18 | 14.05596 | 121.39269 | 6647 ft | 121 kts | 321° |
| 2026-05-04 03:18 | 14.06248 | 121.38726 | 6654 ft | 121 kts | 321° |
| 2026-05-04 03:18 | 14.06902 | 121.38182 | 6710 ft | 121 kts | 321° |
| 2026-05-04 03:18 | 14.07554 | 121.37638 | 6762 ft | 120 kts | 321° |
| 2026-05-04 03:19 | 14.08197 | 121.37102 | 6803 ft | 120 kts | 321° |
| 2026-05-04 03:19 | 14.08849 | 121.36560 | 6811 ft | 120 kts | 321° |
| 2026-05-04 03:19 | 14.09502 | 121.36016 | 6838 ft | 120 kts | 321° |
| 2026-05-04 03:19 | 14.10149 | 121.35473 | 6878 ft | 120 kts | 321° |
| 2026-05-04 03:20 | 14.10801 | 121.34936 | 6892 ft | 120 kts | 321° |
| 2026-05-04 03:20 | 14.11451 | 121.34393 | 6922 ft | 120 kts | 321° |
| 2026-05-04 03:20 | 14.12100 | 121.33853 | 6998 ft | 118 kts | 321° |
| 2026-05-04 03:20 | 14.12750 | 121.33308 | 6998 ft | 121 kts | 320° |
| 2026-05-04 03:21 | 14.13408 | 121.32762 | 6995 ft | 121 kts | 321° |
| 2026-05-04 03:21 | 14.14064 | 121.32216 | 6996 ft | 121 kts | 321° |
| 2026-05-04 03:21 | 14.14732 | 121.31661 | 7003 ft | 125 kts | 321° |
| 2026-05-04 03:21 | 14.15412 | 121.31093 | 7006 ft | 125 kts | 321° |
| 2026-05-04 03:22 | 14.16086 | 121.30531 | 7003 ft | 125 kts | 321° |
| 2026-05-04 03:22 | 14.16750 | 121.29978 | 7010 ft | 125 kts | 321° |
| 2026-05-04 03:22 | 14.17440 | 121.29403 | 7002 ft | 126 kts | 321° |
| 2026-05-04 03:22 | 14.18112 | 121.28843 | 7001 ft | 126 kts | 321° |
| 2026-05-04 03:23 | 14.18792 | 121.28276 | 7006 ft | 125 kts | 321° |
| 2026-05-04 03:23 | 14.19471 | 121.27710 | 7006 ft | 125 kts | 321° |
| 2026-05-04 03:23 | 14.20147 | 121.27145 | 7002 ft | 124 kts | 321° |
| 2026-05-04 03:23 | 14.20811 | 121.26591 | 6999 ft | 123 kts | 321° |
| 2026-05-04 03:24 | 14.21472 | 121.26039 | 6994 ft | 122 kts | 321° |
| 2026-05-04 03:24 | 14.22132 | 121.25488 | 6996 ft | 122 kts | 321° |
| 2026-05-04 03:24 | 14.22790 | 121.24938 | 6995 ft | 122 kts | 321° |
| 2026-05-04 03:24 | 14.23447 | 121.24390 | 6994 ft | 122 kts | 321° |
| 2026-05-04 03:25 | 14.24104 | 121.23842 | 6992 ft | 121 kts | 321° |
| 2026-05-04 03:25 | 14.24761 | 121.23293 | 6993 ft | 121 kts | 321° |
| 2026-05-04 03:25 | 14.25417 | 121.22746 | 6990 ft | 121 kts | 321° |
| 2026-05-04 03:25 | 14.26064 | 121.22206 | 6993 ft | 121 kts | 321° |
| 2026-05-04 03:26 | 14.26719 | 121.21659 | 6993 ft | 121 kts | 321° |
| 2026-05-04 03:26 | 14.27375 | 121.21112 | 6989 ft | 121 kts | 321° |
| 2026-05-04 03:26 | 14.28032 | 121.20564 | 6993 ft | 121 kts | 321° |
| 2026-05-04 03:26 | 14.28688 | 121.20016 | 6993 ft | 121 kts | 321° |
| 2026-05-04 03:27 | 14.29342 | 121.19470 | 7002 ft | 121 kts | 321° |
| 2026-05-04 03:27 | 14.29774 | 121.19109 | 7002 ft | 121 kts | 321° |
| 2026-05-04 03:27 | 14.30649 | 121.18378 | 7002 ft | 121 kts | 321° |
| 2026-05-04 03:27 | 14.31084 | 121.18015 | 6996 ft | 121 kts | 321° |
| 2026-05-04 03:28 | 14.31738 | 121.17468 | 6998 ft | 121 kts | 321° |
| 2026-05-04 03:28 | 14.32395 | 121.16920 | 7003 ft | 121 kts | 321° |
| 2026-05-04 03:28 | 14.33088 | 121.16444 | 6992 ft | 119 kts | 337° |
| 2026-05-04 03:28 | 14.33844 | 121.16141 | 6998 ft | 117 kts | 352° |
| 2026-05-04 03:29 | 14.34538 | 121.15755 | 6989 ft | 117 kts | 303° |
| 2026-05-04 03:29 | 14.35060 | 121.15113 | 7000 ft | 118 kts | 317° |
| 2026-05-04 03:29 | 14.35676 | 121.14544 | 7010 ft | 119 kts | 319° |
| 2026-05-04 03:29 | 14.36515 | 121.13802 | 7006 ft | 121 kts | 320° |
| 2026-05-04 03:30 | 14.36949 | 121.13425 | 7009 ft | 121 kts | 320° |
| 2026-05-04 03:30 | 14.37594 | 121.12868 | 7010 ft | 121 kts | 320° |
| 2026-05-04 03:30 | 14.38242 | 121.12311 | 7009 ft | 121 kts | 320° |
| 2026-05-04 03:30 | 14.38889 | 121.11756 | 7009 ft | 121 kts | 320° |
| 2026-05-04 03:31 | 14.39530 | 121.11206 | 7009 ft | 121 kts | 320° |
| 2026-05-04 03:31 | 14.40177 | 121.10650 | 7009 ft | 121 kts | 320° |
| 2026-05-04 03:31 | 14.40826 | 121.10094 | 7009 ft | 121 kts | 320° |
| 2026-05-04 03:31 | 14.41474 | 121.09538 | 7009 ft | 121 kts | 320° |
| 2026-05-04 03:32 | 14.42122 | 121.08983 | 7009 ft | 121 kts | 320° |
| 2026-05-04 03:32 | 14.42770 | 121.08427 | 7009 ft | 121 kts | 320° |
| 2026-05-04 03:32 | 14.43418 | 121.07870 | 7009 ft | 121 kts | 320° |
| 2026-05-04 03:32 | 14.44067 | 121.07314 | 7008 ft | 121 kts | 320° |
| 2026-05-04 03:33 | 14.44716 | 121.06757 | 7009 ft | 121 kts | 320° |
| 2026-05-04 03:33 | 14.45364 | 121.06201 | 7009 ft | 121 kts | 320° |
| 2026-05-04 03:33 | 14.46012 | 121.05645 | 7009 ft | 121 kts | 320° |
| 2026-05-04 03:33 | 14.46663 | 121.05086 | 7008 ft | 123 kts | 320° |
| 2026-05-04 03:34 | 14.47314 | 121.04528 | 7004 ft | 123 kts | 320° |
| 2026-05-04 03:34 | 14.47969 | 121.03966 | 7009 ft | 122 kts | 320° |
| 2026-05-04 03:34 | 14.48625 | 121.03403 | 7013 ft | 123 kts | 320° |
| 2026-05-04 03:34 | 14.49281 | 121.02839 | 7011 ft | 123 kts | 320° |
| 2026-05-04 03:35 | 14.49939 | 121.02275 | 7021 ft | 123 kts | 320° |
| 2026-05-04 03:35 | 14.50594 | 121.01711 | 7020 ft | 122 kts | 320° |
| 2026-05-04 03:35 | 14.51260 | 121.01160 | 6997 ft | 123 kts | 329° |
| 2026-05-04 03:35 | 14.52088 | 121.01144 | 6983 ft | 126 kts | 24° |
| 2026-05-04 03:36 | 14.52915 | 121.01409 | 6813 ft | 136 kts | 9° |
| 2026-05-04 03:36 | 14.53757 | 121.01423 | 6919 ft | 118 kts | 336° |
| 2026-05-04 03:36 | 14.54616 | 121.01106 | 6533 ft | 136 kts | 321° |
| 2026-05-04 03:36 | 14.55418 | 121.00568 | 6152 ft | 126 kts | 321° |
| 2026-05-04 03:37 | 14.56102 | 120.99932 | 5789 ft | 132 kts | 314° |
| 2026-05-04 03:37 | 14.56639 | 120.99167 | 4966 ft | 149 kts | 270° |
| 2026-05-04 03:37 | 14.56265 | 120.98238 | 4622 ft | 136 kts | 202° |
| 2026-05-04 03:37 | 14.55354 | 120.98109 | 3659 ft | 154 kts | 181° |
| 2026-05-04 03:38 | 14.54427 | 120.98341 | 3182 ft | 133 kts | 150° |
| 2026-05-04 03:38 | 14.53705 | 120.99037 | 2330 ft | 134 kts | 127° |
| 2026-05-04 03:38 | 14.53038 | 120.99648 | 1415 ft | 128 kts | 132° |
| 2026-05-04 03:38 | 14.53299 | 121.00035 | 1208 ft | 97 kts | 358° |
| 2026-05-04 03:39 | 14.53504 | 120.99633 | 970 ft | 94 kts | 219° |
| 2026-05-04 03:39 | 14.52884 | 120.99767 | 483 ft | 113 kts | 137° |
| 2026-05-04 03:39 | 14.52411 | 121.00345 | 123 ft | 99 kts | 134° |
| 2026-05-04 03:39 | 14.52020 | 121.00764 | 65 ft | 64 kts | 141° |
| 2026-05-04 03:40 | 14.51748 | 121.01033 | 65 ft | 41 kts | 138° |